createdAt,value
2018-09-06T00:01:46.343Z,20.98
2018-09-06T00:04:14.571Z,20.91
2018-09-06T00:06:42.791Z,20.92
2018-09-06T00:09:11.040Z,20.83
2018-09-06T00:11:39.287Z,20.65
2018-09-06T00:14:08.599Z,20.54
2018-09-06T00:16:36.827Z,20.71
2018-09-06T00:19:05.315Z,20.39
2018-09-06T00:21:33.602Z,20.39
2018-09-06T00:24:01.819Z,20.61
2018-09-06T00:26:30.063Z,20.73
2018-09-06T00:28:58.294Z,20.57
2018-09-06T00:31:26.519Z,20.56
2018-09-06T00:33:54.770Z,20.46
2018-09-06T00:36:23.006Z,20.66
2018-09-06T00:38:51.230Z,20.50
2018-09-06T00:41:19.619Z,20.45
2018-09-06T00:43:47.855Z,20.56
2018-09-06T00:46:16.094Z,20.52
2018-09-06T00:48:44.342Z,20.40
2018-09-06T00:51:12.574Z,20.41
2018-09-06T00:53:40.782Z,20.51
2018-09-06T00:56:09.025Z,20.54
2018-09-06T00:58:37.284Z,20.41
2018-09-06T01:01:05.517Z,20.34
2018-09-06T01:03:33.746Z,20.38
2018-09-06T01:06:01.978Z,20.50
2018-09-06T01:08:30.199Z,20.25
2018-09-06T01:10:58.470Z,20.14
2018-09-06T01:13:26.710Z,20.06
2018-09-06T01:15:54.913Z,19.98
2018-09-06T01:18:23.166Z,20.13
2018-09-06T01:20:51.401Z,20.29
2018-09-06T01:23:19.654Z,20.33
2018-09-06T01:25:47.891Z,20.32
2018-09-06T01:28:16.786Z,20.34
2018-09-06T01:30:45.014Z,20.39
2018-09-06T01:33:13.272Z,20.45
2018-09-06T01:35:48.409Z,20.32
2018-09-06T01:38:17.248Z,20.23
2018-09-06T01:40:45.497Z,20.31
2018-09-06T01:43:13.739Z,20.38
2018-09-06T01:45:42.009Z,20.46
2018-09-06T01:48:10.321Z,20.19
2018-09-06T01:50:38.545Z,20.31
2018-09-06T01:53:06.837Z,20.28
2018-09-06T01:55:35.070Z,20.38
2018-09-06T01:58:03.282Z,20.41
2018-09-06T02:00:31.516Z,20.44
2018-09-06T02:02:59.755Z,20.50
2018-09-06T02:05:35.381Z,20.57
2018-09-06T02:08:04.461Z,20.24
2018-09-06T02:10:32.765Z,20.25
2018-09-06T02:13:01.022Z,20.23
2018-09-06T02:15:29.281Z,20.24
2018-09-06T02:17:57.505Z,20.42
2018-09-06T02:20:25.743Z,20.33
2018-09-06T02:22:54.290Z,20.30
2018-09-06T02:25:22.539Z,20.34
2018-09-06T02:27:50.775Z,20.18
2018-09-06T02:30:19.017Z,20.14
2018-09-06T02:32:47.258Z,20.09
2018-09-06T02:35:15.486Z,20.20
2018-09-06T02:37:43.731Z,20.16
2018-09-06T02:40:16.110Z,20.15
2018-09-06T02:42:44.360Z,20.25
2018-09-06T02:45:12.595Z,20.32
2018-09-06T02:47:46.166Z,20.31
2018-09-06T02:50:19.646Z,20.30
2018-09-06T02:52:47.871Z,20.20
2018-09-06T02:55:16.138Z,20.13
2018-09-06T02:57:44.375Z,20.05
2018-09-06T03:00:12.586Z,20.15
2018-09-06T03:02:40.822Z,20.20
2018-09-06T03:05:09.143Z,20.41
2018-09-06T03:07:37.434Z,20.39
2018-09-06T03:10:05.744Z,20.27
2018-09-06T03:12:33.987Z,20.39
2018-09-06T03:15:02.258Z,20.32
2018-09-06T03:17:30.526Z,20.31
2018-09-06T03:19:58.946Z,20.37
2018-09-06T03:22:27.163Z,20.46
2018-09-06T03:24:55.442Z,20.55
2018-09-06T03:27:23.705Z,20.47
2018-09-06T03:29:51.974Z,20.35
2018-09-06T03:32:20.258Z,20.31
2018-09-06T03:34:48.521Z,20.35
2018-09-06T03:37:16.781Z,20.49
2018-09-06T03:39:44.998Z,20.42
2018-09-06T03:42:13.269Z,20.43
2018-09-06T03:44:41.503Z,20.22
2018-09-06T03:47:09.742Z,20.11
2018-09-06T03:49:38.342Z,20.15
2018-09-06T03:52:06.682Z,20.29
2018-09-06T03:54:34.907Z,20.28
2018-09-06T03:57:03.258Z,20.43
2018-09-06T03:59:31.540Z,20.40
2018-09-06T04:01:59.782Z,20.41
2018-09-06T04:04:28.048Z,20.52
2018-09-06T04:06:56.309Z,20.51
2018-09-06T04:09:24.545Z,20.56
2018-09-06T04:11:52.802Z,20.52
2018-09-06T04:14:21.035Z,20.55
2018-09-06T04:16:49.257Z,20.53
2018-09-06T04:19:17.484Z,20.55
2018-09-06T04:21:45.711Z,20.59
2018-09-06T04:24:14.007Z,20.41
2018-09-06T04:26:42.161Z,20.39
2018-09-06T04:29:10.398Z,20.40
2018-09-06T04:31:38.635Z,20.34
2018-09-06T04:34:06.923Z,20.34
2018-09-06T04:36:35.170Z,20.40
2018-09-06T04:39:03.506Z,20.44
2018-09-06T04:41:31.722Z,20.44
2018-09-06T04:43:59.970Z,20.48
2018-09-06T04:46:28.185Z,20.45
2018-09-06T04:48:56.410Z,20.50
2018-09-06T04:51:24.641Z,20.47
2018-09-06T04:53:52.861Z,20.40
2018-09-06T04:56:21.110Z,20.41
2018-09-06T04:58:49.366Z,20.39
2018-09-06T05:01:17.603Z,20.36
2018-09-06T05:03:45.827Z,20.40
2018-09-06T05:06:14.198Z,20.27
2018-09-06T05:08:42.539Z,20.30
2018-09-06T05:11:10.751Z,20.42
2018-09-06T05:13:39.036Z,20.36
2018-09-06T05:16:07.266Z,20.15
2018-09-06T05:18:35.527Z,20.05
2018-09-06T05:21:03.778Z,20.09
2018-09-06T05:23:32.007Z,20.14
2018-09-06T05:26:00.224Z,20.09
2018-09-06T05:28:28.447Z,20.33
2018-09-06T05:30:56.774Z,20.20
2018-09-06T05:33:25.019Z,20.25
2018-09-06T05:35:53.368Z,20.25
2018-09-06T05:38:21.603Z,20.19
2018-09-06T05:40:49.838Z,20.34
2018-09-06T05:43:18.072Z,20.36
2018-09-06T05:45:46.277Z,20.32
2018-09-06T05:48:14.523Z,20.38
2018-09-06T05:50:42.731Z,20.34
2018-09-06T05:53:10.975Z,20.26
2018-09-06T05:55:40.247Z,20.27
2018-09-06T05:58:08.623Z,20.40
2018-09-06T06:00:41.898Z,20.28
2018-09-06T06:03:10.244Z,20.15
2018-09-06T06:05:38.541Z,20.28
2018-09-06T06:08:18.226Z,20.33
2018-09-06T06:10:46.502Z,20.25
2018-09-06T06:13:14.818Z,20.23
2018-09-06T06:15:43.043Z,20.20
2018-09-06T06:18:11.258Z,20.26
2018-09-06T06:20:39.534Z,20.15
2018-09-06T06:23:07.871Z,20.13
2018-09-06T06:25:36.207Z,19.86
2018-09-06T06:28:04.465Z,19.82
2018-09-06T06:30:32.698Z,20.03
2018-09-06T06:33:00.922Z,20.15
2018-09-06T06:35:29.143Z,20.19
2018-09-06T06:37:57.369Z,20.09
2018-09-06T06:40:25.615Z,20.01
2018-09-06T06:42:53.894Z,20.10
2018-09-06T06:45:22.223Z,20.16
2018-09-06T06:47:50.508Z,20.07
2018-09-06T06:50:18.795Z,19.87
2018-09-06T06:52:47.013Z,20.10
2018-09-06T06:55:15.546Z,20.10
2018-09-06T06:57:43.866Z,20.06
2018-09-06T07:00:13.166Z,19.93
2018-09-06T07:02:41.402Z,19.93
2018-09-06T07:05:09.719Z,19.98
2018-09-06T07:07:39.072Z,20.17
2018-09-06T07:10:07.330Z,20.25
2018-09-06T07:12:35.645Z,20.03
2018-09-06T07:15:03.923Z,19.91
2018-09-06T07:17:32.184Z,19.93
2018-09-06T07:20:00.433Z,19.96
2018-09-06T07:22:28.650Z,19.83
2018-09-06T07:24:56.999Z,19.80
2018-09-06T07:27:25.271Z,19.91
2018-09-06T07:29:53.530Z,20.04
2018-09-06T07:32:22.066Z,20.14
2018-09-06T07:34:50.348Z,20.02
2018-09-06T07:37:18.558Z,20.09
2018-09-06T07:39:46.795Z,20.14
2018-09-06T07:42:15.023Z,20.03
2018-09-06T07:44:43.291Z,20.12
2018-09-06T07:47:11.505Z,20.10
2018-09-06T07:49:39.771Z,20.06
2018-09-06T07:52:08.088Z,20.03
2018-09-06T07:54:37.346Z,20.11
2018-09-06T07:57:05.570Z,19.97
2018-09-06T07:59:33.786Z,20.12
2018-09-06T08:02:02.133Z,20.11
2018-09-06T08:04:30.372Z,19.97
2018-09-06T08:06:58.635Z,19.95
2018-09-06T08:09:26.851Z,19.82
2018-09-06T08:11:55.168Z,20.03
2018-09-06T08:14:23.589Z,20.04
2018-09-06T08:16:51.847Z,20.10
2018-09-06T08:19:20.067Z,20.14
2018-09-06T08:21:48.315Z,20.13
2018-09-06T08:24:16.613Z,20.16
2018-09-06T08:26:44.843Z,20.21
2018-09-06T08:29:13.110Z,20.07
2018-09-06T08:31:41.365Z,20.11
2018-09-06T08:34:09.606Z,20.18
2018-09-06T08:36:37.838Z,20.24
2018-09-06T08:39:08.837Z,20.20
2018-09-06T08:41:37.376Z,20.17
2018-09-06T08:44:05.639Z,20.14
2018-09-06T08:46:33.888Z,20.30
2018-09-06T08:49:02.143Z,20.40
2018-09-06T08:51:30.371Z,20.40
2018-09-06T08:53:58.618Z,20.55
2018-09-06T08:56:26.871Z,20.39
2018-09-06T08:58:55.168Z,20.29
2018-09-06T09:01:28.840Z,20.34
2018-09-06T09:03:57.578Z,20.27
2018-09-06T09:06:25.863Z,20.33
2018-09-06T09:08:54.114Z,20.43
2018-09-06T09:11:22.351Z,20.46
2018-09-06T09:13:50.621Z,20.44
2018-09-06T09:16:19.055Z,20.31
2018-09-06T09:18:47.299Z,20.31
2018-09-06T09:21:15.504Z,20.43
2018-09-06T09:23:43.749Z,20.47
2018-09-06T09:26:11.990Z,20.47
2018-09-06T09:28:40.228Z,20.46
2018-09-06T09:31:08.469Z,20.51
2018-09-06T09:33:36.747Z,20.35
2018-09-06T09:36:05.068Z,20.53
2018-09-06T09:38:33.258Z,20.37
2018-09-06T09:41:01.539Z,20.55
2018-09-06T09:43:29.778Z,20.58
2018-09-06T09:48:25.490Z,20.66
2018-09-06T09:50:53.742Z,20.50
2018-09-06T09:53:21.973Z,20.45
2018-09-06T09:55:50.201Z,20.74
2018-09-06T09:58:18.479Z,20.81
2018-09-06T10:00:46.782Z,20.72
2018-09-06T10:03:20.149Z,20.82
2018-09-06T10:05:53.887Z,20.98
2018-09-06T10:08:28.521Z,20.98
2018-09-06T10:10:56.883Z,21.06
2018-09-06T10:13:25.133Z,20.87
2018-09-06T10:15:53.382Z,20.83
2018-09-06T10:18:21.667Z,20.78
2018-09-06T10:20:49.913Z,20.69
2018-09-06T10:23:18.150Z,20.65
2018-09-06T10:25:46.414Z,20.63
2018-09-06T10:28:14.727Z,20.71
2018-09-06T10:30:43.037Z,20.70
2018-09-06T10:33:11.302Z,20.87
2018-09-06T10:35:39.617Z,21.01
2018-09-06T10:38:07.883Z,21.14
2018-09-06T10:40:36.189Z,21.02
2018-09-06T10:43:04.426Z,21.29
2018-09-06T10:45:32.883Z,21.28
2018-09-06T10:48:01.315Z,21.27
2018-09-06T10:50:29.559Z,21.26
2018-09-06T10:52:57.786Z,21.23
2018-09-06T10:55:26.015Z,21.21
2018-09-06T10:57:54.242Z,21.19
2018-09-06T11:00:22.458Z,21.31
2018-09-06T11:02:50.753Z,21.28
2018-09-06T11:05:19.310Z,21.47
2018-09-06T11:07:47.556Z,21.29
2018-09-06T11:10:15.801Z,21.32
2018-09-06T11:12:44.020Z,21.27
2018-09-06T11:15:12.262Z,21.33
2018-09-06T11:17:40.482Z,21.33
2018-09-06T11:20:08.768Z,20.83
2018-09-06T11:22:37.307Z,21.07
2018-09-06T11:25:05.269Z,21.06
2018-09-06T11:27:33.518Z,20.99
2018-09-06T11:30:01.733Z,21.15
2018-09-06T11:32:30.090Z,21.10
2018-09-06T11:34:58.387Z,21.42
2018-09-06T11:37:26.694Z,21.33
2018-09-06T11:39:55.013Z,21.23
2018-09-06T11:42:23.213Z,21.38
2018-09-06T11:44:51.471Z,21.63
2018-09-06T11:47:19.855Z,21.76
2018-09-06T11:49:48.042Z,21.85
2018-09-06T11:52:16.313Z,21.85
2018-09-06T11:54:44.563Z,21.83
2018-09-06T11:57:12.940Z,21.69
2018-09-06T11:59:41.204Z,21.67
2018-09-06T12:02:09.491Z,21.68
2018-09-06T12:04:37.738Z,21.61
2018-09-06T12:07:06.012Z,21.73
2018-09-06T12:09:34.254Z,21.45
2018-09-06T12:12:02.593Z,21.49
2018-09-06T12:14:30.815Z,21.47
2018-09-06T12:16:59.177Z,21.50
2018-09-06T12:19:27.482Z,21.62
2018-09-06T12:21:55.646Z,21.53
2018-09-06T12:24:23.950Z,21.52
2018-09-06T12:26:52.209Z,21.48
2018-09-06T12:29:20.535Z,21.49
2018-09-06T12:31:48.902Z,21.51
2018-09-06T12:34:17.151Z,21.59
2018-09-06T12:36:45.450Z,21.56
2018-09-06T12:39:13.762Z,21.58
2018-09-06T12:41:42.047Z,21.59
2018-09-06T12:44:10.307Z,21.52
2018-09-06T12:46:38.595Z,21.48
2018-09-06T12:49:06.953Z,21.61
2018-09-06T12:51:35.225Z,21.65
2018-09-06T12:54:03.503Z,21.63
2018-09-06T12:56:31.760Z,21.74
2018-09-06T12:59:00.079Z,21.83
2018-09-06T13:01:29.394Z,21.61
2018-09-06T13:03:57.646Z,21.64
2018-09-06T13:06:25.905Z,21.77
2018-09-06T13:08:55.223Z,21.65
2018-09-06T13:11:23.505Z,21.84
2018-09-06T13:13:51.767Z,21.79
2018-09-06T13:16:20.049Z,21.78
2018-09-06T13:18:48.467Z,22.03
2018-09-06T13:21:16.612Z,22.17
2018-09-06T13:23:44.881Z,22.02
2018-09-06T13:26:13.169Z,22.19
2018-09-06T13:28:41.407Z,21.80
2018-09-06T13:31:09.654Z,21.99
2018-09-06T13:33:37.927Z,21.84
2018-09-06T13:36:06.171Z,21.80
2018-09-06T13:38:34.385Z,21.70
2018-09-06T13:41:02.630Z,21.58
2018-09-06T13:43:30.943Z,21.68
2018-09-06T13:45:59.114Z,21.58
2018-09-06T13:48:27.347Z,21.61
2018-09-06T13:50:55.650Z,21.58
2018-09-06T13:53:23.887Z,21.69
2018-09-06T13:55:52.118Z,21.55
2018-09-06T13:58:20.368Z,21.62
2018-09-06T14:00:48.611Z,21.54
2018-09-06T14:03:16.846Z,21.75
2018-09-06T14:05:45.130Z,21.63
2018-09-06T14:08:13.303Z,21.39
2018-09-06T14:10:41.526Z,21.30
2018-09-06T14:13:09.768Z,21.47
2018-09-06T14:15:38.001Z,21.46
2018-09-06T14:18:06.222Z,21.32
2018-09-06T14:20:34.489Z,21.48
2018-09-06T14:23:02.719Z,21.38
2018-09-06T14:25:30.934Z,21.31
2018-09-06T14:27:59.154Z,21.30
2018-09-06T14:30:27.375Z,21.25
2018-09-06T14:32:55.605Z,21.18
2018-09-06T14:35:23.834Z,21.31
2018-09-06T14:37:52.054Z,21.32
2018-09-06T14:42:47.742Z,21.22
2018-09-06T14:45:16.327Z,21.09
2018-09-06T14:47:44.727Z,20.95
2018-09-06T14:50:13.035Z,20.83
2018-09-06T14:52:41.262Z,20.77
2018-09-06T14:55:10.538Z,20.88
2018-09-06T14:57:38.766Z,21.12
2018-09-06T15:00:07.008Z,21.19
2018-09-06T15:02:35.234Z,21.34
2018-09-06T15:05:03.501Z,21.29
2018-09-06T15:07:31.847Z,21.36
2018-09-06T15:10:00.185Z,21.39
2018-09-06T15:12:28.462Z,21.27
2018-09-06T15:14:56.683Z,21.36
2018-09-06T15:17:24.927Z,21.44
2018-09-06T15:19:54.284Z,21.61
2018-09-06T15:22:22.554Z,21.74
2018-09-06T15:24:50.826Z,21.78
2018-09-06T15:27:19.046Z,21.78
2018-09-06T15:29:47.278Z,21.80
2018-09-06T15:32:15.503Z,21.86
2018-09-06T15:34:43.802Z,22.14
2018-09-06T15:37:11.976Z,22.23
2018-09-06T15:39:40.227Z,22.09
2018-09-06T15:42:08.549Z,22.27
2018-09-06T15:44:36.773Z,22.15
2018-09-06T15:47:05.119Z,21.53
2018-09-06T15:49:33.485Z,21.65
2018-09-06T15:52:01.708Z,21.83
2018-09-06T15:54:29.946Z,21.88
2018-09-06T15:56:58.177Z,21.58
2018-09-06T15:59:26.426Z,21.68
2018-09-06T16:01:54.660Z,21.83
2018-09-06T16:04:22.882Z,21.78
2018-09-06T16:06:51.142Z,21.66
2018-09-06T16:09:19.380Z,21.55
2018-09-06T16:11:47.613Z,21.65
2018-09-06T16:14:15.851Z,21.44
2018-09-06T16:16:44.095Z,21.39
2018-09-06T16:19:12.301Z,21.65
2018-09-06T16:21:40.556Z,21.67
2018-09-06T16:24:08.857Z,21.84
2018-09-06T16:26:37.049Z,21.92
2018-09-06T16:29:05.442Z,22.16
2018-09-06T16:31:33.670Z,22.20
2018-09-06T16:34:01.949Z,22.30
2018-09-06T16:36:30.166Z,22.19
2018-09-06T16:38:58.406Z,22.20
2018-09-06T16:41:26.656Z,22.21
2018-09-06T16:43:54.973Z,22.30
2018-09-06T16:46:23.206Z,22.22
2018-09-06T16:48:51.512Z,22.22
2018-09-06T16:51:19.725Z,22.20
2018-09-06T16:53:47.963Z,22.21
2018-09-06T16:56:16.290Z,22.12
2018-09-06T16:58:44.518Z,22.06
2018-09-06T17:01:12.797Z,22.14
2018-09-06T17:03:41.015Z,22.10
2018-09-06T17:06:09.359Z,22.18
2018-09-06T17:08:37.798Z,22.32
2018-09-06T17:11:06.079Z,22.34
2018-09-06T17:13:34.302Z,22.26
2018-09-06T17:16:02.555Z,22.14
2018-09-06T17:18:30.896Z,22.18
2018-09-06T17:20:59.179Z,22.10
2018-09-06T17:23:27.421Z,22.07
2018-09-06T17:25:55.781Z,21.97
2018-09-06T17:28:24.022Z,22.01
2018-09-06T17:30:52.338Z,21.99
2018-09-06T17:33:20.628Z,21.83
2018-09-06T17:35:48.877Z,21.67
2018-09-06T17:38:17.134Z,21.65
2018-09-06T17:40:45.393Z,21.59
2018-09-06T17:43:13.622Z,21.71
2018-09-06T17:45:41.898Z,21.65
2018-09-06T17:48:10.209Z,21.66
2018-09-06T17:50:38.462Z,21.72
2018-09-06T17:53:06.815Z,21.64
2018-09-06T17:55:35.772Z,21.54
2018-09-06T17:58:03.979Z,21.61
2018-09-06T18:00:32.252Z,21.48
2018-09-06T18:03:00.514Z,21.39
2018-09-06T18:05:28.806Z,21.19
2018-09-06T18:07:57.114Z,21.21
2018-09-06T18:10:25.394Z,20.94
2018-09-06T18:12:53.635Z,20.97
2018-09-06T18:15:21.945Z,20.92
2018-09-06T18:17:50.340Z,20.65
2018-09-06T18:20:18.478Z,20.64
2018-09-06T18:22:46.826Z,20.75
2018-09-06T18:25:15.083Z,20.81
2018-09-06T18:27:43.354Z,20.75
2018-09-06T18:30:11.639Z,20.76
2018-09-06T18:32:39.918Z,20.75
2018-09-06T18:35:08.163Z,20.74
2018-09-06T18:37:36.492Z,20.63
2018-09-06T18:40:04.702Z,20.60
2018-09-06T18:42:32.931Z,20.45
2018-09-06T18:45:01.241Z,20.54
2018-09-06T18:47:29.490Z,20.41
2018-09-06T18:49:57.802Z,20.43
2018-09-06T18:52:26.067Z,20.48
2018-09-06T18:54:54.334Z,20.32
2018-09-06T18:57:22.595Z,20.31
2018-09-06T18:59:50.877Z,20.40
2018-09-06T19:02:19.127Z,20.46
2018-09-06T19:04:47.385Z,20.36
2018-09-06T19:07:15.643Z,20.38
2018-09-06T19:09:44.455Z,20.32
2018-09-06T19:12:12.855Z,20.32
2018-09-06T19:14:41.130Z,20.26
2018-09-06T19:17:09.413Z,20.31
2018-09-06T19:19:37.640Z,20.22
2018-09-06T19:22:05.958Z,20.14
2018-09-06T19:24:34.205Z,20.16
2018-09-06T19:27:02.450Z,20.11
2018-09-06T19:29:30.693Z,20.01
2018-09-06T19:31:59.078Z,20.10
2018-09-06T19:34:27.258Z,19.94
2018-09-06T19:36:55.487Z,19.92
2018-09-06T19:39:23.809Z,19.84
2018-09-06T19:41:52.046Z,19.95
2018-09-06T19:44:20.318Z,19.82
2018-09-06T19:46:48.546Z,19.80
2018-09-06T19:49:16.843Z,19.88
2018-09-06T19:51:45.122Z,19.95
2018-09-06T19:54:13.434Z,19.76
2018-09-06T19:56:41.627Z,19.62
2018-09-06T19:59:09.874Z,19.64
2018-09-06T20:01:38.558Z,19.75
2018-09-06T20:04:06.895Z,19.76
2018-09-06T20:06:36.059Z,19.80
2018-09-06T20:09:04.993Z,19.65
2018-09-06T20:11:33.234Z,19.66
2018-09-06T20:14:01.960Z,19.71
2018-09-06T20:16:30.226Z,19.74
2018-09-06T20:18:58.486Z,19.68
2018-09-06T20:21:26.733Z,19.62
2018-09-06T20:23:54.982Z,19.77
2018-09-06T20:26:23.226Z,19.64
2018-09-06T20:28:51.477Z,19.51
2018-09-06T20:31:19.703Z,19.55
2018-09-06T20:33:47.940Z,19.63
2018-09-06T20:36:16.218Z,19.62
2018-09-06T20:38:44.476Z,19.65
2018-09-06T20:41:12.701Z,19.60
2018-09-06T20:43:41.012Z,19.68
2018-09-06T20:46:09.238Z,19.65
2018-09-06T20:48:37.465Z,19.65
2018-09-06T20:51:05.738Z,19.58
2018-09-06T20:53:33.982Z,19.62
2018-09-06T20:56:02.223Z,19.56
2018-09-06T20:58:31.492Z,19.55
2018-09-06T21:01:01.735Z,19.42
2018-09-06T21:03:29.963Z,19.55
2018-09-06T21:05:58.296Z,19.51
2018-09-06T21:08:26.587Z,19.49
2018-09-06T21:10:54.785Z,19.48
2018-09-06T21:13:23.055Z,19.28
2018-09-06T21:15:51.303Z,19.28
2018-09-06T21:18:19.530Z,19.43
2018-09-06T21:20:47.751Z,19.21
2018-09-06T21:23:15.999Z,19.23
2018-09-06T21:25:44.223Z,19.15
2018-09-06T21:28:12.483Z,19.22
2018-09-06T21:30:40.773Z,19.06
2018-09-06T21:33:09.707Z,18.97
2018-09-06T21:35:37.998Z,19.06
2018-09-06T21:38:06.274Z,18.83
2018-09-06T21:40:34.509Z,18.86
2018-09-06T21:43:02.746Z,18.86
2018-09-06T21:45:30.969Z,18.98
2018-09-06T21:47:59.258Z,18.97
2018-09-06T21:50:27.466Z,18.95
2018-09-06T21:52:55.698Z,19.00
2018-09-06T21:55:23.931Z,18.97
2018-09-06T21:57:52.162Z,18.92
2018-09-06T22:02:53.045Z,18.85
2018-09-06T22:05:21.277Z,18.99
2018-09-06T22:07:49.547Z,18.99
2018-09-06T22:10:21.451Z,18.83
2018-09-06T22:12:50.728Z,18.77
2018-09-06T22:15:19.176Z,18.71
2018-09-06T22:17:47.486Z,18.65
2018-09-06T22:20:15.841Z,18.72
2018-09-06T22:22:44.230Z,18.78
2018-09-06T22:25:12.591Z,18.67
2018-09-06T22:27:41.970Z,18.49
2018-09-06T22:30:10.287Z,18.45
2018-09-06T22:32:39.606Z,18.34
2018-09-06T22:35:07.865Z,18.50
2018-09-06T22:37:36.093Z,18.58
2018-09-06T22:40:04.345Z,18.71
2018-09-06T22:42:32.626Z,18.55
2018-09-06T22:45:00.953Z,18.63
2018-09-06T22:47:29.254Z,18.56
2018-09-06T22:49:57.461Z,18.36
2018-09-06T22:52:25.815Z,18.30
2018-09-06T22:54:54.072Z,18.16
2018-09-06T22:57:22.294Z,18.22
2018-09-06T22:59:50.536Z,18.20
2018-09-06T23:02:18.786Z,18.22
2018-09-06T23:04:47.031Z,18.14
2018-09-06T23:07:15.289Z,18.13
2018-09-06T23:09:43.518Z,18.41
2018-09-06T23:12:11.748Z,18.47
2018-09-06T23:14:39.991Z,18.56
2018-09-06T23:17:08.258Z,18.59
2018-09-06T23:19:36.510Z,18.60
2018-09-06T23:22:04.799Z,18.59
2018-09-06T23:24:33.040Z,18.42
2018-09-06T23:27:01.285Z,18.43
2018-09-06T23:29:29.547Z,18.60
2018-09-06T23:31:57.755Z,18.51
2018-09-06T23:34:29.223Z,18.38
2018-09-06T23:36:57.450Z,18.43
2018-09-06T23:39:25.680Z,18.32
2018-09-06T23:41:53.917Z,18.33
2018-09-06T23:44:22.179Z,18.21
2018-09-06T23:46:50.991Z,18.34
2018-09-06T23:49:19.251Z,18.38
2018-09-06T23:54:14.758Z,18.25
2018-09-06T23:56:42.977Z,18.20
2018-09-06T23:59:11.207Z,18.23
